KSLN

Salina Municipal Airport

Airport
ICAO code
KSLN
Summary
ICAO Region
NAM
ICAO Territory
Location

Salina, Kansas,

Coordinates
38° 47' 29" N , 97° 39' 2" W
KCC
Airport CFIT
Altimeter Temperature Error Correction
Metar
KSLN 240853Z AUTO 27004KT 10SM FEW110 11/00 A3019 RMK AO2 SLP218 T01060000 53009

Description

Salina Regional Airport is a public use airport located 6 km southwest of the central business district of Salina, a city in Saline County, Kansas.

Climatology

Salina lies in the transition zone between North America's humid subtropical climate (Köppen climate classification Cfa) and humid continental climate (Köppen climate classification Dfa) and experiences hot, humid summers and cold, dry winters.

Runways

Designator Length Width Surface Rops
4/22 1112 23 ASP Yes/Yes
18/36 1311 23 ASP Yes/Yes
12/30 1984 30 ASP Yes/Yes
17/35 3749 46 ASP Yes/Yes

Airport map

Aerial View

SKYbrary Partners:

Safety knowledge contributed by: